createdAt,value
2023-01-17T00:01:48.621Z,14.82
2023-01-17T00:04:08.772Z,18.20
2023-01-17T00:06:28.787Z,15.50
2023-01-17T00:08:48.770Z,16.48
2023-01-17T00:10:50.283Z,16.30
2023-01-17T00:12:54.966Z,17.55
2023-01-17T00:14:58.504Z,16.05
2023-01-17T00:17:03.153Z,17.55
2023-01-17T00:19:23.300Z,17.48
2023-01-17T00:21:43.502Z,17.50
2023-01-17T00:24:23.434Z,20.15
2023-01-17T00:26:25.003Z,18.10
2023-01-17T00:28:27.443Z,15.98
2023-01-17T00:30:29.309Z,17.10
2023-01-17T00:32:30.852Z,20.45
2023-01-17T00:34:32.307Z,22.08
2023-01-17T00:36:33.776Z,22.67
2023-01-17T00:38:37.082Z,21.10
2023-01-17T00:40:40.869Z,21.88
2023-01-17T00:42:42.342Z,23.38
2023-01-17T00:45:02.278Z,18.92
2023-01-17T00:47:22.258Z,18.17
2023-01-17T00:49:42.320Z,17.02
2023-01-17T00:52:02.197Z,19.45
2023-01-17T00:54:22.840Z,17.13
2023-01-17T00:56:42.809Z,18.25
2023-01-17T00:59:02.752Z,21.52
2023-01-17T01:01:26.250Z,18.55
2023-01-17T01:03:46.669Z,19.42
2023-01-17T01:06:06.670Z,13.73
2023-01-17T01:08:42.263Z,15.90
2023-01-17T01:11:03.683Z,18.02
2023-01-17T01:13:23.757Z,15.23
2023-01-17T01:15:43.806Z,16.02
2023-01-17T01:18:03.585Z,19.00
2023-01-17T01:20:24.212Z,17.88
2023-01-17T01:22:44.293Z,19.45
2023-01-17T01:25:04.241Z,18.10
2023-01-17T01:27:24.857Z,17.33
2023-01-17T01:29:44.774Z,20.58
2023-01-17T01:32:04.969Z,19.67
2023-01-17T01:34:06.525Z,18.25
2023-01-17T01:36:09.318Z,11.88
2023-01-17T01:38:10.981Z,17.35
2023-01-17T01:40:13.789Z,15.45
2023-01-17T01:42:16.014Z,15.80
2023-01-17T01:44:42.416Z,15.23
2023-01-17T01:46:43.906Z,14.52
2023-01-17T01:49:06.194Z,9.98
2023-01-17T01:51:11.557Z,15.63
2023-01-17T01:53:13.077Z,13.35
2023-01-17T01:55:36.585Z,16.08
2023-01-17T01:57:42.376Z,13.55
2023-01-17T01:59:49.762Z,13.63
2023-01-17T02:01:53.458Z,9.80
2023-01-17T02:03:55.109Z,14.02
2023-01-17T02:06:04.240Z,14.00
2023-01-17T02:08:08.587Z,14.75
2023-01-17T02:10:10.984Z,11.43
2023-01-17T02:12:13.046Z,13.45
2023-01-17T02:14:16.734Z,14.82
2023-01-17T02:16:24.753Z,15.35
2023-01-17T02:18:41.231Z,15.45
2023-01-17T02:21:12.645Z,15.68
2023-01-17T02:23:35.534Z,15.23
2023-01-17T02:26:14.599Z,13.95
2023-01-17T02:28:44.138Z,15.45
2023-01-17T02:30:54.465Z,14.60
2023-01-17T02:33:14.238Z,15.65
2023-01-17T02:35:21.695Z,14.70
2023-01-17T02:37:38.662Z,14.90
2023-01-17T02:39:48.745Z,15.35
2023-01-17T02:42:17.901Z,15.32
2023-01-17T02:44:20.547Z,14.48
2023-01-17T02:46:22.094Z,14.82
2023-01-17T02:48:28.117Z,14.98
2023-01-17T02:51:01.841Z,15.82
2023-01-17T02:53:23.251Z,15.40
2023-01-17T02:55:36.797Z,14.85
2023-01-17T02:58:02.570Z,14.15
2023-01-17T03:00:21.616Z,15.18
2023-01-17T03:02:37.939Z,14.60
2023-01-17T03:04:49.232Z,15.55
2023-01-17T03:07:00.784Z,16.52
2023-01-17T03:09:03.051Z,15.68
2023-01-17T03:11:04.664Z,15.00
2023-01-17T03:13:06.279Z,16.05
2023-01-17T03:15:17.462Z,15.80
2023-01-17T03:17:19.244Z,16.05
2023-01-17T03:19:20.732Z,16.58
2023-01-17T03:21:23.471Z,18.55
2023-01-17T03:23:25.021Z,18.17
2023-01-17T03:25:27.310Z,17.60
2023-01-17T03:27:29.015Z,20.00
2023-01-17T03:29:30.719Z,19.42
2023-01-17T03:31:32.338Z,18.98
2023-01-17T03:33:34.011Z,17.65
2023-01-17T03:35:35.647Z,16.33
2023-01-17T03:37:37.184Z,17.15
2023-01-17T03:39:38.726Z,16.73
2023-01-17T03:41:40.429Z,16.48
2023-01-17T03:43:41.943Z,19.00
2023-01-17T03:45:43.480Z,17.38
2023-01-17T03:47:45.024Z,17.13
2023-01-17T03:49:46.547Z,19.67
2023-01-17T03:51:48.023Z,20.77
2023-01-17T03:53:50.740Z,18.75
2023-01-17T03:55:52.332Z,19.80
2023-01-17T03:57:53.856Z,20.10
2023-01-17T03:59:55.375Z,18.40
2023-01-17T04:01:56.910Z,19.55
2023-01-17T04:03:58.729Z,19.65
2023-01-17T04:06:00.305Z,21.70
2023-01-17T04:08:01.799Z,16.20
2023-01-17T04:10:04.171Z,20.33
2023-01-17T04:12:05.883Z,20.95
2023-01-17T04:14:07.451Z,26.70
2023-01-17T04:16:18.644Z,20.33
2023-01-17T04:18:23.135Z,20.20
2023-01-17T04:20:39.506Z,19.05
2023-01-17T04:22:41.085Z,14.32
2023-01-17T04:24:42.641Z,22.92
2023-01-17T04:26:44.301Z,20.85
2023-01-17T04:28:45.934Z,20.15
2023-01-17T04:30:47.720Z,21.05
2023-01-17T04:32:49.429Z,21.67
2023-01-17T04:34:50.930Z,21.58
2023-01-17T04:36:52.461Z,24.98
2023-01-17T04:38:53.940Z,26.55
2023-01-17T04:40:55.497Z,34.63
2023-01-17T04:42:58.305Z,61.22
2023-01-17T04:44:59.839Z,78.75
2023-01-17T04:47:02.921Z,100.80
2023-01-17T04:49:04.470Z,96.18
2023-01-17T04:51:06.348Z,81.15
2023-01-17T04:53:07.954Z,55.53
2023-01-17T04:55:09.738Z,40.25
2023-01-17T04:57:11.272Z,38.38
2023-01-17T04:59:12.853Z,30.88
2023-01-17T05:01:14.606Z,28.77
2023-01-17T05:03:20.248Z,26.30
2023-01-17T05:05:21.877Z,25.92
2023-01-17T05:07:23.366Z,26.55
2023-01-17T05:09:24.905Z,25.27
2023-01-17T05:11:26.418Z,25.98
2023-01-17T05:13:28.000Z,26.65
2023-01-17T05:15:29.847Z,31.33
2023-01-17T05:17:31.393Z,41.20
2023-01-17T05:19:32.982Z,42.00
2023-01-17T05:21:34.885Z,44.85
2023-01-17T05:23:36.588Z,47.90
2023-01-17T05:25:38.142Z,52.45
2023-01-17T05:27:39.765Z,46.88
2023-01-17T05:29:41.557Z,38.80
2023-01-17T05:31:43.077Z,34.78
2023-01-17T05:33:44.682Z,37.22
2023-01-17T05:35:46.276Z,34.50
2023-01-17T05:37:51.874Z,36.88
2023-01-17T05:39:53.394Z,38.40
2023-01-17T05:41:54.899Z,37.55
2023-01-17T05:43:56.453Z,35.55
2023-01-17T05:45:57.966Z,35.15
2023-01-17T05:47:59.573Z,49.90
2023-01-17T05:50:01.080Z,48.95
2023-01-17T05:52:02.729Z,45.40
2023-01-17T05:54:05.096Z,39.72
2023-01-17T05:56:06.716Z,39.05
2023-01-17T05:58:13.016Z,36.47
2023-01-17T06:00:15.422Z,39.88
2023-01-17T06:02:16.940Z,39.67
2023-01-17T06:04:18.601Z,36.47
2023-01-17T06:06:20.466Z,34.03
2023-01-17T06:08:23.511Z,32.65
2023-01-17T06:10:26.203Z,31.10
2023-01-17T06:12:27.729Z,30.17
2023-01-17T06:14:29.286Z,34.70
2023-01-17T06:16:30.823Z,34.80
2023-01-17T06:18:32.403Z,34.40
2023-01-17T06:20:34.289Z,34.92
2023-01-17T06:22:36.096Z,56.28
2023-01-17T06:24:37.639Z,74.45
2023-01-17T06:26:39.186Z,59.33
2023-01-17T06:28:40.811Z,62.95
2023-01-17T06:30:43.944Z,44.67
2023-01-17T06:32:52.320Z,43.20
2023-01-17T06:34:53.795Z,40.22
2023-01-17T06:36:55.287Z,41.95
2023-01-17T06:38:56.853Z,50.00
2023-01-17T06:41:00.591Z,100.85
2023-01-17T06:43:04.098Z,73.10
2023-01-17T06:45:06.115Z,52.65
2023-01-17T06:47:07.634Z,38.92
2023-01-17T06:49:09.179Z,81.25
2023-01-17T06:51:11.294Z,257.15
2023-01-17T06:53:12.775Z,173.85
2023-01-17T06:55:14.270Z,116.35
2023-01-17T06:57:15.780Z,85.68
2023-01-17T06:59:17.289Z,42.08
2023-01-17T07:01:19.324Z,34.38
2023-01-17T07:03:26.205Z,51.72
2023-01-17T07:05:28.611Z,40.50
2023-01-17T07:07:33.843Z,29.63
2023-01-17T07:09:35.500Z,27.35
2023-01-17T07:11:37.105Z,30.33
2023-01-17T07:13:39.425Z,32.83
2023-01-17T07:15:41.041Z,30.08
2023-01-17T07:17:42.555Z,31.05
2023-01-17T07:19:44.933Z,31.17
2023-01-17T07:21:47.210Z,31.92
2023-01-17T07:23:48.979Z,29.40
2023-01-17T07:25:54.203Z,32.00
2023-01-17T07:27:57.623Z,35.10
2023-01-17T07:29:59.254Z,32.95
2023-01-17T07:32:00.866Z,28.15
2023-01-17T07:34:03.109Z,31.65
2023-01-17T07:36:09.399Z,29.35
2023-01-17T07:38:20.176Z,33.05
2023-01-17T07:40:22.656Z,30.95
2023-01-17T07:42:24.501Z,27.98
2023-01-17T07:44:26.039Z,27.77
2023-01-17T07:46:27.918Z,28.58
2023-01-17T07:48:30.624Z,23.45
2023-01-17T07:50:32.224Z,26.88
2023-01-17T07:52:33.742Z,30.83
2023-01-17T07:54:35.621Z,26.63
2023-01-17T07:56:37.666Z,22.33
2023-01-17T07:58:40.440Z,27.83
2023-01-17T08:00:44.373Z,33.65
2023-01-17T08:02:45.920Z,31.60
2023-01-17T08:04:48.249Z,33.75
2023-01-17T08:06:51.685Z,31.40
2023-01-17T08:08:58.952Z,26.70
2023-01-17T08:11:00.681Z,27.75
2023-01-17T08:13:02.324Z,22.15
2023-01-17T08:15:04.120Z,23.95
2023-01-17T08:17:07.736Z,21.40
2023-01-17T08:19:10.265Z,20.70
2023-01-17T08:21:16.843Z,21.38
2023-01-17T08:23:18.481Z,20.60
2023-01-17T08:25:20.035Z,20.52
2023-01-17T08:27:21.614Z,22.65
2023-01-17T08:29:24.297Z,21.33
2023-01-17T08:31:26.590Z,21.52
2023-01-17T08:33:28.168Z,22.75
2023-01-17T08:35:30.021Z,24.60
2023-01-17T08:37:31.551Z,30.38
2023-01-17T08:39:33.299Z,30.70
2023-01-17T08:41:35.942Z,25.50
2023-01-17T08:43:37.451Z,30.83
2023-01-17T08:45:43.608Z,23.65
2023-01-17T08:47:45.210Z,21.15
2023-01-17T08:49:46.767Z,21.33
2023-01-17T08:51:48.457Z,20.10
2023-01-17T08:53:50.221Z,18.73
2023-01-17T08:55:58.613Z,18.33
2023-01-17T08:58:00.143Z,16.77
2023-01-17T09:00:01.774Z,12.18
2023-01-17T09:02:14.739Z,10.88
2023-01-17T09:04:16.353Z,11.88
2023-01-17T09:06:18.148Z,13.40
2023-01-17T09:08:19.775Z,13.20
2023-01-17T09:10:23.317Z,11.35
2023-01-17T09:12:25.075Z,12.52
2023-01-17T09:14:26.645Z,11.10
2023-01-17T09:16:29.402Z,10.73
2023-01-17T09:18:32.534Z,11.57
2023-01-17T09:20:34.072Z,11.18
2023-01-17T09:22:37.861Z,9.95
2023-01-17T09:24:39.609Z,10.32
2023-01-17T09:26:41.168Z,11.63
2023-01-17T09:28:42.808Z,11.38
2023-01-17T09:30:44.367Z,12.27
2023-01-17T09:32:52.880Z,11.25
2023-01-17T09:34:57.923Z,10.90
2023-01-17T09:36:59.530Z,17.80
2023-01-17T09:39:02.612Z,13.02
2023-01-17T09:41:22.213Z,15.73
2023-01-17T09:44:07.156Z,12.40
2023-01-17T09:46:22.509Z,13.48
2023-01-17T09:48:44.648Z,17.25
2023-01-17T09:51:14.680Z,28.08
2023-01-17T09:53:20.863Z,18.63
2023-01-17T09:55:22.451Z,21.90
2023-01-17T09:58:05.108Z,20.50
2023-01-17T10:00:43.937Z,28.65
2023-01-17T10:03:02.544Z,14.37
2023-01-17T10:05:22.926Z,19.15
2023-01-17T10:07:33.201Z,21.55
2023-01-17T10:09:53.303Z,16.20
2023-01-17T10:12:21.082Z,16.08
2023-01-17T10:14:40.240Z,20.23
2023-01-17T10:17:03.455Z,14.93
2023-01-17T10:19:35.306Z,15.70
2023-01-17T10:22:02.413Z,20.88
2023-01-17T10:24:25.819Z,20.77
2023-01-17T10:26:27.699Z,15.15
2023-01-17T10:28:47.285Z,13.13
2023-01-17T10:30:59.687Z,13.00
2023-01-17T10:33:24.382Z,14.20
2023-01-17T10:35:31.011Z,14.30
2023-01-17T10:37:44.153Z,16.35
2023-01-17T10:39:48.704Z,13.57
2023-01-17T10:41:59.435Z,14.38
2023-01-17T10:44:18.544Z,12.48
2023-01-17T10:46:28.530Z,12.52
2023-01-17T10:48:36.192Z,13.18
2023-01-17T10:50:51.284Z,13.25
2023-01-17T10:53:07.753Z,15.35
2023-01-17T10:55:40.055Z,11.68
2023-01-17T10:57:44.567Z,11.77
2023-01-17T10:59:46.603Z,11.85
2023-01-17T11:01:50.375Z,10.90
2023-01-17T11:03:54.636Z,11.55
2023-01-17T11:06:18.031Z,11.13
2023-01-17T11:08:22.017Z,11.00
2023-01-17T11:10:45.001Z,12.05
2023-01-17T11:12:47.410Z,11.82
2023-01-17T11:15:01.575Z,11.40
2023-01-17T11:17:05.865Z,12.57
2023-01-17T11:19:10.926Z,14.82
2023-01-17T11:21:24.560Z,11.18
2023-01-17T11:23:31.629Z,13.55
2023-01-17T11:25:34.356Z,11.27
2023-01-17T11:27:40.979Z,10.02
2023-01-17T11:29:42.527Z,10.50
2023-01-17T11:31:44.071Z,11.77
2023-01-17T11:33:49.351Z,10.20
2023-01-17T11:35:50.896Z,16.67
2023-01-17T11:37:57.022Z,13.23
2023-01-17T11:40:20.613Z,11.02
2023-01-17T11:42:36.752Z,10.68
2023-01-17T11:44:38.287Z,9.75
2023-01-17T11:46:39.975Z,19.88
2023-01-17T11:48:41.607Z,15.02
2023-01-17T11:51:00.001Z,19.70
2023-01-17T11:53:07.454Z,15.23
2023-01-17T11:55:21.123Z,15.43
2023-01-17T11:57:35.954Z,9.93
2023-01-17T11:59:42.525Z,9.57
2023-01-17T12:01:55.822Z,13.40
2023-01-17T12:04:24.069Z,12.43
2023-01-17T12:06:47.770Z,15.10
2023-01-17T12:09:08.830Z,13.05
2023-01-17T12:11:25.070Z,12.50
2023-01-17T12:14:01.177Z,18.98
2023-01-17T12:16:40.831Z,7.68
2023-01-17T12:18:54.019Z,9.55
2023-01-17T12:21:01.131Z,8.02
2023-01-17T12:23:17.547Z,8.60
2023-01-17T12:25:40.336Z,7.60
2023-01-17T12:28:11.574Z,9.25
2023-01-17T12:30:30.871Z,8.27
2023-01-17T12:32:54.202Z,11.73
2023-01-17T12:34:59.019Z,9.55
2023-01-17T12:37:12.414Z,8.93
2023-01-17T12:39:16.983Z,8.40
2023-01-17T12:41:31.447Z,6.70
2023-01-17T12:43:43.950Z,9.05
2023-01-17T12:45:48.204Z,12.65
2023-01-17T12:47:56.701Z,10.13
2023-01-17T12:50:29.115Z,7.13
2023-01-17T12:53:14.740Z,8.57
2023-01-17T12:55:22.336Z,7.13
2023-01-17T12:57:33.635Z,8.35
2023-01-17T12:59:42.574Z,6.40
2023-01-17T13:01:57.481Z,7.10
2023-01-17T13:04:25.366Z,4.90
2023-01-17T13:06:47.847Z,5.82
2023-01-17T13:08:53.167Z,5.60
2023-01-17T13:11:01.041Z,6.68
2023-01-17T13:13:13.578Z,8.68
2023-01-17T13:15:22.951Z,5.90
2023-01-17T13:17:38.571Z,6.03
2023-01-17T13:19:50.235Z,5.85
2023-01-17T13:21:52.655Z,8.38
2023-01-17T13:24:02.031Z,8.85
2023-01-17T13:26:13.995Z,13.55
2023-01-17T13:28:43.545Z,10.75
2023-01-17T13:31:00.024Z,18.90
2023-01-17T13:33:25.205Z,19.30
2023-01-17T13:35:42.827Z,22.25
2023-01-17T13:38:04.192Z,8.10
2023-01-17T13:40:33.858Z,16.17
2023-01-17T13:42:53.995Z,11.73
2023-01-17T13:44:56.906Z,13.75
2023-01-17T13:47:02.770Z,16.33
2023-01-17T13:49:34.318Z,14.77
2023-01-17T13:52:11.006Z,26.25
2023-01-17T13:54:33.470Z,16.95
2023-01-17T13:56:36.207Z,20.15
2023-01-17T13:58:54.684Z,59.28
2023-01-17T14:01:04.478Z,37.65
2023-01-17T14:05:23.209Z,12.77
2023-01-17T14:07:26.328Z,28.77
2023-01-17T14:09:30.411Z,22.70
2023-01-17T14:11:55.222Z,34.15
2023-01-17T14:13:56.749Z,21.17
2023-01-17T14:15:58.620Z,28.35
2023-01-17T14:18:04.171Z,33.03
2023-01-17T14:20:13.209Z,30.83
2023-01-17T14:22:29.880Z,7.70
2023-01-17T14:24:31.641Z,19.40
2023-01-17T14:26:42.092Z,18.48
2023-01-17T14:28:43.643Z,22.55
2023-01-17T14:30:45.803Z,25.15
2023-01-17T14:33:03.065Z,22.80
2023-01-17T14:35:05.753Z,11.18
2023-01-17T14:37:33.107Z,14.70
2023-01-17T14:39:44.692Z,9.25
2023-01-17T14:41:46.246Z,13.98
2023-01-17T14:43:59.619Z,14.27
2023-01-17T14:46:22.654Z,14.10
2023-01-17T14:48:28.734Z,13.55
2023-01-17T14:50:44.400Z,10.32
2023-01-17T14:53:18.168Z,9.00
2023-01-17T14:55:20.978Z,16.15
2023-01-17T14:57:28.792Z,12.45
2023-01-17T14:59:30.412Z,19.92
2023-01-17T15:01:33.904Z,28.52
2023-01-17T15:03:44.216Z,30.45
2023-01-17T15:05:48.849Z,44.92
2023-01-17T15:07:53.134Z,58.30
2023-01-17T15:09:54.703Z,37.53
2023-01-17T15:11:57.591Z,24.80
2023-01-17T15:14:05.742Z,21.95
2023-01-17T15:16:18.184Z,24.02
2023-01-17T15:18:22.309Z,20.65
2023-01-17T15:20:24.134Z,18.90
2023-01-17T15:22:26.673Z,39.63
2023-01-17T15:24:34.559Z,33.80
2023-01-17T15:26:44.851Z,33.85
2023-01-17T15:28:46.936Z,42.20
2023-01-17T15:31:05.493Z,40.83
2023-01-17T15:33:16.851Z,30.92
2023-01-17T15:35:19.262Z,27.17
2023-01-17T15:37:36.362Z,26.27
2023-01-17T15:39:40.434Z,30.77
2023-01-17T15:41:42.007Z,38.17
2023-01-17T15:43:45.323Z,56.47
2023-01-17T15:45:57.184Z,36.97
2023-01-17T15:48:33.957Z,91.75
2023-01-17T15:50:38.579Z,99.53
2023-01-17T15:52:51.080Z,57.75
2023-01-17T15:54:58.706Z,55.80
2023-01-17T15:57:18.176Z,127.88
2023-01-17T15:59:22.828Z,486.83
2023-01-17T16:01:27.388Z,357.60
2023-01-17T16:03:30.736Z,340.63
2023-01-17T16:05:38.620Z,300.85
2023-01-17T16:07:40.133Z,107.75
2023-01-17T16:09:44.189Z,114.22
2023-01-17T16:11:45.820Z,123.18
2023-01-17T16:13:48.554Z,85.72
2023-01-17T16:15:50.239Z,107.25
2023-01-17T16:18:19.042Z,113.97
2023-01-17T16:20:28.122Z,102.53
2023-01-17T16:22:29.681Z,304.23
2023-01-17T16:24:31.745Z,184.35
2023-01-17T16:26:33.729Z,121.95
2023-01-17T16:28:35.340Z,59.58
2023-01-17T16:30:36.998Z,65.85
2023-01-17T16:32:38.572Z,167.07
2023-01-17T16:34:40.639Z,72.35
2023-01-17T16:36:42.242Z,76.60
2023-01-17T16:38:45.130Z,60.55
2023-01-17T16:40:47.506Z,97.68
2023-01-17T16:42:49.293Z,85.55
2023-01-17T16:44:50.842Z,86.47
2023-01-17T16:46:52.647Z,98.50
2023-01-17T16:48:54.291Z,63.30
2023-01-17T16:50:56.159Z,88.00
2023-01-17T16:52:57.630Z,111.55
2023-01-17T16:55:00.345Z,114.65
2023-01-17T16:57:01.924Z,153.23
2023-01-17T16:59:03.604Z,92.90
2023-01-17T17:01:16.929Z,74.63
2023-01-17T17:03:20.375Z,45.60
2023-01-17T17:05:21.952Z,26.65
2023-01-17T17:07:23.582Z,21.33
2023-01-17T17:09:25.120Z,21.20
2023-01-17T17:11:26.654Z,20.73
2023-01-17T17:13:28.164Z,35.45
2023-01-17T17:15:29.734Z,52.03
2023-01-17T17:17:35.957Z,62.13
2023-01-17T17:19:37.508Z,62.35
2023-01-17T17:21:39.010Z,41.20
2023-01-17T17:23:40.700Z,38.05
2023-01-17T17:25:42.300Z,40.17
2023-01-17T17:27:43.893Z,32.47
2023-01-17T17:29:45.390Z,22.58
2023-01-17T17:31:47.204Z,30.90
2023-01-17T17:33:49.055Z,31.63
2023-01-17T17:35:50.572Z,34.10
2023-01-17T17:37:52.349Z,69.82
2023-01-17T17:39:54.210Z,62.65
2023-01-17T17:41:55.813Z,53.92
2023-01-17T17:43:58.164Z,52.65
2023-01-17T17:45:59.778Z,52.97
2023-01-17T17:48:01.383Z,85.03
2023-01-17T17:50:02.944Z,77.00
2023-01-17T17:52:08.284Z,118.30
2023-01-17T17:54:12.969Z,78.65
2023-01-17T17:56:14.517Z,84.70
2023-01-17T17:58:16.111Z,64.70
2023-01-17T18:00:18.263Z,67.90
2023-01-17T18:02:19.837Z,70.95
2023-01-17T18:04:22.128Z,83.13
2023-01-17T18:06:24.047Z,77.22
2023-01-17T18:08:25.619Z,55.00
2023-01-17T18:10:27.703Z,82.65
2023-01-17T18:12:29.208Z,80.72
2023-01-17T18:14:30.826Z,55.75
2023-01-17T18:16:36.012Z,47.88
2023-01-17T18:18:44.102Z,43.00
2023-01-17T18:20:45.687Z,47.60
2023-01-17T18:22:47.214Z,47.97
2023-01-17T18:24:48.803Z,77.43
2023-01-17T18:26:56.940Z,70.97
2023-01-17T18:28:59.681Z,102.60
2023-01-17T18:31:05.223Z,94.05
2023-01-17T18:33:06.742Z,77.05
2023-01-17T18:35:08.662Z,58.58
2023-01-17T18:37:10.217Z,61.33
2023-01-17T18:39:15.614Z,58.10
2023-01-17T18:41:18.732Z,50.20
2023-01-17T18:43:20.358Z,47.03
2023-01-17T18:45:21.882Z,44.88
2023-01-17T18:47:23.884Z,48.00
2023-01-17T18:49:25.380Z,43.58
2023-01-17T18:51:29.334Z,46.90
2023-01-17T18:53:32.858Z,40.30
2023-01-17T18:55:34.378Z,48.50
2023-01-17T18:57:35.975Z,34.83
2023-01-17T18:59:37.634Z,28.52
2023-01-17T19:01:42.332Z,28.83
2023-01-17T19:03:45.882Z,29.77
2023-01-17T19:05:48.364Z,44.90
2023-01-17T19:07:50.314Z,56.80
2023-01-17T19:09:51.876Z,65.60
2023-01-17T19:11:53.948Z,64.57
2023-01-17T19:13:56.647Z,75.38
2023-01-17T19:16:03.484Z,104.88
2023-01-17T19:18:05.606Z,129.93
2023-01-17T19:20:09.264Z,135.30
2023-01-17T19:22:10.790Z,130.90
2023-01-17T19:24:13.297Z,128.02
2023-01-17T19:26:17.226Z,123.65
2023-01-17T19:28:18.807Z,108.38
2023-01-17T19:30:20.706Z,193.82
2023-01-17T19:32:22.232Z,148.63
2023-01-17T19:34:23.806Z,129.95
2023-01-17T19:36:31.382Z,164.00
2023-01-17T19:38:35.089Z,158.75
2023-01-17T19:40:36.679Z,203.43
2023-01-17T19:42:38.190Z,162.70
2023-01-17T19:44:39.697Z,111.78
2023-01-17T19:46:41.385Z,84.15
2023-01-17T19:48:42.949Z,69.75
2023-01-17T19:50:44.504Z,64.38
2023-01-17T19:52:46.083Z,153.50
2023-01-17T19:54:47.605Z,165.77
2023-01-17T19:56:49.811Z,200.88
2023-01-17T19:58:52.478Z,146.60
2023-01-17T20:00:55.113Z,119.05
2023-01-17T20:02:56.755Z,115.25
2023-01-17T20:04:59.457Z,82.53
2023-01-17T20:07:01.037Z,89.00
2023-01-17T20:09:03.767Z,75.60
2023-01-17T20:11:18.463Z,96.75
2023-01-17T20:13:20.119Z,81.78
2023-01-17T20:15:24.051Z,101.03
2023-01-17T20:17:25.563Z,121.22
2023-01-17T20:19:27.088Z,128.68
2023-01-17T20:21:30.108Z,135.05
2023-01-17T20:23:36.004Z,134.65
2023-01-17T20:25:37.531Z,133.32
2023-01-17T20:27:40.886Z,122.82
2023-01-17T20:29:42.658Z,108.00
2023-01-17T20:31:45.743Z,111.03
2023-01-17T20:33:50.358Z,124.28
2023-01-17T20:36:08.783Z,95.22
2023-01-17T20:40:13.509Z,77.63
2023-01-17T20:42:15.021Z,89.72
2023-01-17T20:44:16.908Z,73.53
2023-01-17T20:46:20.792Z,74.30
2023-01-17T20:48:22.503Z,109.18
2023-01-17T20:50:24.012Z,133.50
2023-01-17T20:52:25.517Z,113.85
2023-01-17T20:54:27.232Z,104.40
2023-01-17T20:56:30.331Z,111.15
2023-01-17T20:58:34.056Z,97.28
2023-01-17T21:00:37.798Z,83.13
2023-01-17T21:02:39.367Z,70.38
2023-01-17T21:04:40.993Z,63.90
2023-01-17T21:06:43.612Z,70.35
2023-01-17T21:08:46.484Z,70.70
2023-01-17T21:10:48.682Z,87.10
2023-01-17T21:12:50.228Z,81.18
2023-01-17T21:14:51.807Z,63.67
2023-01-17T21:16:53.480Z,53.40
2023-01-17T21:18:55.091Z,49.95
2023-01-17T21:21:02.361Z,56.45
2023-01-17T21:23:03.884Z,64.88
2023-01-17T21:25:10.009Z,61.45
2023-01-17T21:27:12.906Z,65.40
2023-01-17T21:29:16.220Z,70.13
2023-01-17T21:31:24.828Z,69.25
2023-01-17T21:33:28.576Z,79.90
2023-01-17T21:35:31.692Z,82.40
2023-01-17T21:37:33.221Z,84.88
2023-01-17T21:39:34.780Z,74.43
2023-01-17T21:41:37.976Z,79.90
2023-01-17T21:43:39.559Z,69.50
2023-01-17T21:45:42.162Z,55.92
2023-01-17T21:47:44.559Z,49.15
2023-01-17T21:49:46.772Z,50.22
2023-01-17T21:51:54.036Z,50.25
2023-01-17T21:53:55.538Z,53.00
2023-01-17T21:56:20.481Z,50.20
2023-01-17T21:58:40.973Z,62.78
2023-01-17T22:00:43.287Z,40.67
2023-01-17T22:02:46.727Z,36.17
2023-01-17T22:04:48.260Z,32.40
2023-01-17T22:06:49.831Z,34.20
2023-01-17T22:08:51.689Z,52.05
2023-01-17T22:10:53.477Z,62.25
2023-01-17T22:12:54.992Z,45.80
2023-01-17T22:14:56.523Z,41.35
2023-01-17T22:16:58.160Z,34.17
2023-01-17T22:18:59.684Z,43.17
2023-01-17T22:21:05.804Z,41.28
2023-01-17T22:23:11.553Z,40.38
2023-01-17T22:25:13.098Z,52.25
2023-01-17T22:27:14.665Z,57.70
2023-01-17T22:29:18.850Z,61.75
2023-01-17T22:31:23.340Z,49.78
2023-01-17T22:33:24.896Z,54.00
2023-01-17T22:35:26.469Z,44.67
2023-01-17T22:37:28.026Z,42.25
2023-01-17T22:39:29.541Z,45.53
2023-01-17T22:41:32.858Z,38.47
2023-01-17T22:43:36.285Z,40.67
2023-01-17T22:45:37.828Z,39.15
2023-01-17T22:47:39.431Z,43.60
2023-01-17T22:49:40.928Z,48.85
2023-01-17T22:51:42.690Z,60.88
2023-01-17T22:53:52.385Z,62.13
2023-01-17T22:58:01.962Z,38.03
2023-01-17T23:00:14.359Z,33.67
2023-01-17T23:02:16.740Z,37.10
2023-01-17T23:04:18.276Z,31.75
2023-01-17T23:06:28.473Z,36.50
2023-01-17T23:08:30.033Z,37.15
2023-01-17T23:10:50.300Z,37.50
2023-01-17T23:12:51.870Z,39.95
2023-01-17T23:15:12.144Z,38.60
2023-01-17T23:17:32.328Z,38.42
2023-01-17T23:19:38.930Z,37.40
2023-01-17T23:21:58.737Z,36.67
2023-01-17T23:24:00.255Z,35.40
2023-01-17T23:26:01.890Z,31.23
2023-01-17T23:28:14.411Z,42.30
2023-01-17T23:30:17.721Z,44.55
2023-01-17T23:32:19.269Z,43.25
2023-01-17T23:34:21.362Z,37.88
2023-01-17T23:36:22.973Z,41.50
2023-01-17T23:38:29.169Z,44.95
2023-01-17T23:40:32.588Z,41.25
2023-01-17T23:42:52.704Z,38.85
2023-01-17T23:44:54.257Z,38.20
2023-01-17T23:46:55.845Z,40.53
2023-01-17T23:48:57.411Z,38.78
2023-01-17T23:51:00.971Z,45.30
2023-01-17T23:53:08.660Z,49.97
2023-01-17T23:55:10.189Z,60.58
2023-01-17T23:57:11.711Z,53.42
2023-01-17T23:59:13.374Z,47.25
